createdAt,value
2018-03-02T00:00:38.457Z,91679.70
2018-03-02T00:01:27.519Z,91675.45
2018-03-02T00:02:16.563Z,91681.73
2018-03-02T00:03:05.610Z,91683.55
2018-03-02T00:03:54.654Z,91675.22
2018-03-02T00:04:43.721Z,91674.56
2018-03-02T00:05:32.785Z,91668.94
2018-03-02T00:06:22.013Z,91671.02
2018-03-02T00:07:11.062Z,91672.06
2018-03-02T00:08:00.112Z,91668.55
2018-03-02T00:08:49.213Z,91659.08
2018-03-02T00:09:38.288Z,91650.69
2018-03-02T00:10:27.407Z,91654.09
2018-03-02T00:11:16.559Z,91661.36
2018-03-02T00:12:05.662Z,91671.80
2018-03-02T00:12:54.708Z,91669.45
2018-03-02T00:13:43.771Z,91677.83
2018-03-02T00:14:32.845Z,91677.59
2018-03-02T00:15:21.911Z,91670.15
2018-03-02T00:16:10.995Z,91658.88
2018-03-02T00:17:00.096Z,91664.16
2018-03-02T00:17:49.175Z,91670.66
2018-03-02T00:18:38.411Z,91677.31
2018-03-02T00:19:27.467Z,91671.73
2018-03-02T00:20:16.548Z,91661.08
2018-03-02T00:21:05.605Z,91650.28
2018-03-02T00:21:54.658Z,91661.27
2018-03-02T00:22:43.707Z,91653.73
2018-03-02T00:23:32.778Z,91652.20
2018-03-02T00:24:21.903Z,91655.59
2018-03-02T00:25:10.959Z,91662.08
2018-03-02T00:26:00.012Z,91659.67
2018-03-02T00:26:49.446Z,91638.96
2018-03-02T00:27:38.582Z,91637.53
2018-03-02T00:28:27.625Z,91652.72
2018-03-02T00:29:16.665Z,91672.66
2018-03-02T00:30:05.761Z,91671.95
2018-03-02T00:30:54.821Z,91668.47
2018-03-02T00:31:43.892Z,91666.14
2018-03-02T00:32:32.937Z,91670.02
2018-03-02T00:33:21.998Z,91673.83
2018-03-02T00:34:11.035Z,91668.67
2018-03-02T00:35:00.107Z,91661.55
2018-03-02T00:35:49.254Z,91649.30
2018-03-02T00:36:38.303Z,91651.81
2018-03-02T00:37:27.350Z,91650.55
2018-03-02T00:38:16.398Z,91645.70
2018-03-02T00:39:05.459Z,91640.31
2018-03-02T00:39:54.511Z,91642.23
2018-03-02T00:40:43.569Z,91648.88
2018-03-02T00:41:32.677Z,91652.05
2018-03-02T00:42:21.788Z,91656.66
2018-03-02T00:43:10.871Z,91651.81
2018-03-02T00:43:59.948Z,91647.16
2018-03-02T00:44:48.998Z,91634.95
2018-03-02T00:45:38.040Z,91634.21
2018-03-02T00:46:27.097Z,91642.58
2018-03-02T00:47:16.182Z,91654.34
2018-03-02T00:48:05.234Z,91658.14
2018-03-02T00:48:54.279Z,91652.81
2018-03-02T00:49:43.327Z,91649.68
2018-03-02T00:50:32.369Z,91642.76
2018-03-02T00:51:21.469Z,91631.12
2018-03-02T00:52:10.531Z,91621.12
2018-03-02T00:52:59.685Z,91620.22
2018-03-02T00:53:48.755Z,91627.50
2018-03-02T00:54:37.816Z,91640.13
2018-03-02T00:55:26.866Z,91630.20
2018-03-02T00:56:15.909Z,91623.32
2018-03-02T00:57:04.950Z,91613.16
2018-03-02T00:57:54.012Z,91613.91
2018-03-02T00:58:43.139Z,91628.09
2018-03-02T00:59:32.213Z,91622.16
2018-03-02T01:00:21.279Z,91626.77
2018-03-02T01:01:10.361Z,91621.48
2018-03-02T01:01:59.485Z,91623.73
2018-03-02T01:02:48.653Z,91633.91
2018-03-02T01:03:37.764Z,91639.18
2018-03-02T01:04:26.861Z,91637.02
2018-03-02T01:05:15.920Z,91632.06
2018-03-02T01:06:04.971Z,91623.59
2018-03-02T01:06:54.072Z,91629.55
2018-03-02T01:07:43.174Z,91616.00
2018-03-02T01:08:32.272Z,91608.03
2018-03-02T01:09:21.328Z,91609.78
2018-03-02T01:10:10.512Z,91626.70
2018-03-02T01:10:59.581Z,91631.40
2018-03-02T01:11:48.915Z,91631.25
2018-03-02T01:12:37.965Z,91631.55
2018-03-02T01:13:27.014Z,91623.97
2018-03-02T01:14:16.103Z,91616.49
2018-03-02T01:15:05.155Z,91622.86
2018-03-02T01:15:54.311Z,91619.62
2018-03-02T01:16:43.444Z,91616.43
2018-03-02T01:17:32.503Z,91609.16
2018-03-02T01:18:21.562Z,91606.94
2018-03-02T01:19:10.606Z,91616.28
2018-03-02T01:19:59.707Z,91617.97
2018-03-02T01:20:48.804Z,91615.30
2018-03-02T01:21:37.839Z,91608.52
2018-03-02T01:22:26.895Z,91598.58
2018-03-02T01:23:15.966Z,91593.20
2018-03-02T01:24:05.096Z,91578.92
2018-03-02T01:24:54.152Z,91582.11
2018-03-02T01:25:43.256Z,91584.30
2018-03-02T01:26:32.321Z,91591.94
2018-03-02T01:27:21.383Z,91602.89
2018-03-02T01:28:10.440Z,91583.31
2018-03-02T01:28:59.484Z,91576.40
2018-03-02T01:29:48.530Z,91581.04
2018-03-02T01:30:37.569Z,91581.89
2018-03-02T01:31:26.743Z,91583.61
2018-03-02T01:32:15.800Z,91594.99
2018-03-02T01:33:04.873Z,91595.53
2018-03-02T01:33:53.937Z,91591.97
2018-03-02T01:34:46.239Z,91591.43
2018-03-02T01:35:35.274Z,91570.91
2018-03-02T01:36:24.405Z,91560.58
2018-03-02T01:37:13.487Z,91581.44
2018-03-02T01:38:02.571Z,91585.98
2018-03-02T01:38:51.616Z,91585.89
2018-03-02T01:39:40.677Z,91571.87
2018-03-02T01:40:29.716Z,91563.61
2018-03-02T01:41:18.761Z,91562.04
2018-03-02T01:42:07.873Z,91564.29
2018-03-02T01:42:56.937Z,91555.75
2018-03-02T01:43:45.985Z,91561.95
2018-03-02T01:44:35.033Z,91561.33
2018-03-02T01:45:24.081Z,91554.58
2018-03-02T01:46:13.168Z,91549.28
2018-03-02T01:47:02.204Z,91548.25
2018-03-02T01:47:51.351Z,91553.08
2018-03-02T01:48:40.390Z,91547.73
2018-03-02T01:49:29.441Z,91550.94
2018-03-02T01:50:18.495Z,91554.30
2018-03-02T01:51:07.693Z,91555.86
2018-03-02T01:51:56.774Z,91548.37
2018-03-02T01:52:45.854Z,91548.16
2018-03-02T01:53:34.956Z,91546.34
2018-03-02T01:54:24.295Z,91546.78
2018-03-02T01:55:13.358Z,91549.66
2018-03-02T01:56:02.424Z,91547.08
2018-03-02T01:56:51.505Z,91539.59
2018-03-02T01:57:40.577Z,91538.19
2018-03-02T01:58:29.634Z,91530.64
2018-03-02T01:59:18.674Z,91539.94
2018-03-02T02:00:07.902Z,91554.48
2018-03-02T02:00:56.974Z,91558.79
2018-03-02T02:01:46.056Z,91552.48
2018-03-02T02:02:35.089Z,91551.74
2018-03-02T02:03:24.234Z,91544.25
2018-03-02T02:04:13.276Z,91543.95
2018-03-02T02:05:02.353Z,91546.70
2018-03-02T02:05:51.392Z,91547.99
2018-03-02T02:06:40.451Z,91555.94
2018-03-02T02:07:29.540Z,91546.11
2018-03-02T02:08:18.618Z,91548.46
2018-03-02T02:09:07.717Z,91561.63
2018-03-02T02:09:56.791Z,91553.91
2018-03-02T02:10:45.855Z,91544.31
2018-03-02T02:11:34.941Z,91538.00
2018-03-02T02:12:24.177Z,91531.88
2018-03-02T02:13:13.225Z,91536.56
2018-03-02T02:14:02.365Z,91532.34
2018-03-02T02:14:51.411Z,91538.16
2018-03-02T02:15:40.454Z,91543.16
2018-03-02T02:16:29.518Z,91544.11
2018-03-02T02:17:18.612Z,91537.03
2018-03-02T02:18:07.702Z,91526.22
2018-03-02T02:18:56.792Z,91535.63
2018-03-02T02:19:48.908Z,91540.73
2018-03-02T02:20:37.953Z,91532.84
2018-03-02T02:21:27.011Z,91524.05
2018-03-02T02:22:16.076Z,91522.52
2018-03-02T02:23:05.139Z,91520.32
2018-03-02T02:23:54.181Z,91532.70
2018-03-02T02:24:43.247Z,91537.77
2018-03-02T02:25:32.406Z,91530.66
2018-03-02T02:26:21.450Z,91532.89
2018-03-02T02:27:10.484Z,91536.70
2018-03-02T02:27:59.550Z,91541.67
2018-03-02T02:28:48.597Z,91531.30
2018-03-02T02:29:37.691Z,91514.88
2018-03-02T02:30:26.736Z,91506.26
2018-03-02T02:31:15.839Z,91507.25
2018-03-02T02:32:04.880Z,91510.98
2018-03-02T02:32:53.923Z,91511.37
2018-03-02T02:33:43.041Z,91509.17
2018-03-02T02:34:32.094Z,91498.29
2018-03-02T02:35:21.177Z,91499.58
2018-03-02T02:36:10.226Z,91499.47
2018-03-02T02:36:59.393Z,91501.25
2018-03-02T02:37:48.504Z,91510.89
2018-03-02T02:38:37.551Z,91516.59
2018-03-02T02:39:26.601Z,91511.44
2018-03-02T02:40:15.683Z,91510.75
2018-03-02T02:41:04.747Z,91514.32
2018-03-02T02:41:53.807Z,91504.83
2018-03-02T02:42:42.950Z,91507.60
2018-03-02T02:43:32.018Z,91506.75
2018-03-02T02:44:21.080Z,91512.84
2018-03-02T02:45:10.131Z,91509.59
2018-03-02T02:45:59.173Z,91515.90
2018-03-02T02:46:48.253Z,91514.25
2018-03-02T02:47:37.303Z,91523.37
2018-03-02T02:48:26.376Z,91523.20
2018-03-02T02:49:15.429Z,91515.84
2018-03-02T02:50:04.468Z,91512.64
2018-03-02T02:50:53.517Z,91507.28
2018-03-02T02:51:42.574Z,91504.92
2018-03-02T02:52:31.626Z,91507.53
2018-03-02T02:53:20.668Z,91510.11
2018-03-02T02:54:09.772Z,91505.12
2018-03-02T02:54:58.827Z,91498.77
2018-03-02T02:55:47.869Z,91499.59
2018-03-02T02:56:36.920Z,91498.35
2018-03-02T02:57:25.953Z,91502.36
2018-03-02T02:58:15.110Z,91519.58
2018-03-02T02:59:04.419Z,91520.18
2018-03-02T02:59:53.476Z,91505.90
2018-03-02T03:00:42.530Z,91501.87
2018-03-02T03:01:31.588Z,91490.22
2018-03-02T03:02:20.633Z,91498.12
2018-03-02T03:03:09.714Z,91496.25
2018-03-02T03:03:58.932Z,91502.52
2018-03-02T03:04:47.991Z,91501.06
2018-03-02T03:05:37.029Z,91493.79
2018-03-02T03:06:26.092Z,91490.38
2018-03-02T03:07:15.153Z,91485.06
2018-03-02T03:08:04.203Z,91482.84
2018-03-02T03:08:53.270Z,91485.16
2018-03-02T03:09:42.405Z,91486.31
2018-03-02T03:10:31.452Z,91495.43
2018-03-02T03:11:20.541Z,91501.78
2018-03-02T03:12:09.633Z,91490.88
2018-03-02T03:12:58.709Z,91479.15
2018-03-02T03:13:47.828Z,91474.88
2018-03-02T03:14:36.872Z,91483.03
2018-03-02T03:15:25.988Z,91488.91
2018-03-02T03:16:15.032Z,91493.01
2018-03-02T03:17:04.098Z,91482.25
2018-03-02T03:17:53.154Z,91475.48
2018-03-02T03:18:42.197Z,91474.33
2018-03-02T03:19:31.249Z,91472.59
2018-03-02T03:20:20.302Z,91464.28
2018-03-02T03:21:09.516Z,91461.25
2018-03-02T03:21:58.573Z,91463.13
2018-03-02T03:22:47.624Z,91458.93
2018-03-02T03:23:36.663Z,91463.95
2018-03-02T03:24:25.726Z,91468.27
2018-03-02T03:25:14.875Z,91472.63
2018-03-02T03:26:03.916Z,91466.50
2018-03-02T03:26:52.947Z,91460.45
2018-03-02T03:27:41.991Z,91458.51
2018-03-02T03:28:31.058Z,91460.12
2018-03-02T03:29:20.141Z,91462.48
2018-03-02T03:30:09.248Z,91467.75
2018-03-02T03:30:58.365Z,91467.17
2018-03-02T03:31:47.426Z,91465.50
2018-03-02T03:32:36.480Z,91462.89
2018-03-02T03:33:25.530Z,91464.16
2018-03-02T03:34:14.631Z,91467.77
2018-03-02T03:35:03.670Z,91462.13
2018-03-02T03:35:52.732Z,91459.64
2018-03-02T03:36:41.824Z,91449.53
2018-03-02T03:37:30.868Z,91452.73
2018-03-02T03:38:19.910Z,91454.76
2018-03-02T03:39:08.952Z,91466.84
2018-03-02T03:39:58.019Z,91466.87
2018-03-02T03:40:47.066Z,91462.49
2018-03-02T03:41:36.142Z,91466.36
2018-03-02T03:42:25.306Z,91466.81
2018-03-02T03:43:14.489Z,91462.13
2018-03-02T03:44:03.558Z,91466.55
2018-03-02T03:44:52.608Z,91464.07
2018-03-02T03:45:41.655Z,91457.55
2018-03-02T03:46:30.689Z,91445.22
2018-03-02T03:47:19.730Z,91449.06
2018-03-02T03:48:08.790Z,91445.88
2018-03-02T03:48:57.885Z,91450.27
2018-03-02T03:49:46.954Z,91451.48
2018-03-02T03:50:36.013Z,91458.62
2018-03-02T03:51:25.075Z,91451.56
2018-03-02T03:52:14.277Z,91457.87
2018-03-02T03:53:03.313Z,91458.17
2018-03-02T03:53:52.356Z,91451.42
2018-03-02T03:54:41.450Z,91436.53
2018-03-02T03:55:30.505Z,91434.55
2018-03-02T03:56:19.558Z,91427.30
2018-03-02T03:57:08.610Z,91440.48
2018-03-02T03:57:57.654Z,91435.78
2018-03-02T03:58:46.714Z,91438.19
2018-03-02T03:59:35.761Z,91436.95
2018-03-02T04:00:24.901Z,91439.42
2018-03-02T04:01:13.970Z,91440.48
2018-03-02T04:02:03.081Z,91442.77
2018-03-02T04:02:52.122Z,91434.61
2018-03-02T04:03:41.167Z,91437.67
2018-03-02T04:04:30.207Z,91436.57
2018-03-02T04:05:19.452Z,91442.98
2018-03-02T04:06:08.511Z,91443.98
2018-03-02T04:06:57.545Z,91433.36
2018-03-02T04:07:46.617Z,91446.52
2018-03-02T04:08:35.663Z,91441.56
2018-03-02T04:09:24.706Z,91444.27
2018-03-02T04:10:13.747Z,91444.13
2018-03-02T04:11:03.043Z,91446.41
2018-03-02T04:11:52.098Z,91440.34
2018-03-02T04:12:41.193Z,91436.56
2018-03-02T04:13:30.274Z,91446.36
2018-03-02T04:14:19.345Z,91448.79
2018-03-02T04:15:08.456Z,91444.13
2018-03-02T04:15:57.546Z,91439.27
2018-03-02T04:16:46.594Z,91432.78
2018-03-02T04:17:35.638Z,91430.51
2018-03-02T04:18:24.684Z,91433.50
2018-03-02T04:19:13.742Z,91445.12
2018-03-02T04:20:02.787Z,91443.05
2018-03-02T04:20:51.973Z,91448.19
2018-03-02T04:21:41.055Z,91444.41
2018-03-02T04:22:30.124Z,91435.21
2018-03-02T04:23:19.259Z,91438.02
2018-03-02T04:24:08.286Z,91439.91
2018-03-02T04:24:57.429Z,91439.70
2018-03-02T04:25:46.502Z,91437.92
2018-03-02T04:26:35.596Z,91425.66
2018-03-02T04:27:24.644Z,91429.52
2018-03-02T04:28:13.684Z,91434.36
2018-03-02T04:29:02.742Z,91425.77
2018-03-02T04:29:51.777Z,91421.19
2018-03-02T04:30:40.977Z,91417.72
2018-03-02T04:31:30.055Z,91418.67
2018-03-02T04:32:19.089Z,91421.98
2018-03-02T04:33:08.146Z,91428.16
2018-03-02T04:33:57.185Z,91430.69
2018-03-02T04:34:46.231Z,91428.23
2018-03-02T04:35:35.299Z,91420.86
2018-03-02T04:36:24.383Z,91413.42
2018-03-02T04:37:13.470Z,91413.81
2018-03-02T04:38:02.554Z,91409.41
2018-03-02T04:38:51.603Z,91405.92
2018-03-02T04:39:40.657Z,91401.86
2018-03-02T04:40:29.714Z,91393.34
2018-03-02T04:41:18.761Z,91395.27
2018-03-02T04:42:08.143Z,91389.31
2018-03-02T04:42:57.222Z,91384.46
2018-03-02T04:43:46.296Z,91382.75
2018-03-02T04:44:35.357Z,91382.74
2018-03-02T04:45:24.403Z,91387.12
2018-03-02T04:46:13.470Z,91386.84
2018-03-02T04:47:02.564Z,91385.38
2018-03-02T04:47:51.725Z,91385.42
2018-03-02T04:48:40.769Z,91389.19
2018-03-02T04:49:29.822Z,91389.91
2018-03-02T04:50:18.868Z,91379.00
2018-03-02T04:51:07.920Z,91379.11
2018-03-02T04:51:56.958Z,91380.27
2018-03-02T04:52:46.021Z,91390.83
2018-03-02T04:53:35.117Z,91390.53
2018-03-02T04:54:24.183Z,91391.28
2018-03-02T04:55:13.272Z,91387.31
2018-03-02T04:56:02.337Z,91381.24
2018-03-02T04:56:51.377Z,91388.16
2018-03-02T04:57:40.464Z,91390.48
2018-03-02T04:58:29.531Z,91390.02
2018-03-02T04:59:18.675Z,91390.98
2018-03-02T05:00:07.725Z,91398.13
2018-03-02T05:00:56.807Z,91394.14
2018-03-02T05:01:45.853Z,91391.01
2018-03-02T05:02:34.899Z,91390.98
2018-03-02T05:03:23.954Z,91406.97
2018-03-02T05:04:13.039Z,91406.55
2018-03-02T05:05:02.138Z,91407.36
2018-03-02T05:05:51.206Z,91408.50
2018-03-02T05:06:40.283Z,91405.26
2018-03-02T05:07:29.352Z,91402.02
2018-03-02T05:08:18.484Z,91402.44
2018-03-02T05:09:07.555Z,91401.53
2018-03-02T05:09:56.603Z,91409.80
2018-03-02T05:10:45.709Z,91402.96
2018-03-02T05:11:34.766Z,91396.54
2018-03-02T05:12:23.842Z,91402.00
2018-03-02T05:13:12.897Z,91398.05
2018-03-02T05:14:01.991Z,91399.22
2018-03-02T05:14:51.297Z,91397.22
2018-03-02T05:15:40.349Z,91389.19
2018-03-02T05:16:29.510Z,91389.48
2018-03-02T05:17:18.558Z,91389.42
2018-03-02T05:18:07.642Z,91389.55
2018-03-02T05:18:56.690Z,91387.98
2018-03-02T05:19:45.756Z,91392.27
2018-03-02T05:20:34.806Z,91395.53
2018-03-02T05:21:23.882Z,91403.77
2018-03-02T05:22:12.970Z,91406.86
2018-03-02T05:23:02.023Z,91416.14
2018-03-02T05:23:51.104Z,91414.06
2018-03-02T05:24:40.156Z,91410.77
2018-03-02T05:25:29.240Z,91412.00
2018-03-02T05:26:18.325Z,91418.78
2018-03-02T05:27:07.388Z,91412.89
2018-03-02T05:27:56.608Z,91414.78
2018-03-02T05:28:45.672Z,91423.58
2018-03-02T05:29:34.748Z,91428.64
2018-03-02T05:30:23.900Z,91429.31
2018-03-02T05:31:13.030Z,91418.85
2018-03-02T05:32:02.097Z,91418.75
2018-03-02T05:32:51.157Z,91422.48
2018-03-02T05:33:40.233Z,91415.71
2018-03-02T05:34:29.402Z,91411.15
2018-03-02T05:35:18.458Z,91401.27
2018-03-02T05:36:07.526Z,91401.73
2018-03-02T05:36:56.581Z,91400.28
2018-03-02T05:37:45.630Z,91406.86
2018-03-02T05:38:34.685Z,91408.77
2018-03-02T05:39:23.763Z,91410.19
2018-03-02T05:40:12.851Z,91406.66
2018-03-02T05:41:01.913Z,91408.06
2018-03-02T05:41:50.966Z,91405.56
2018-03-02T05:42:40.044Z,91396.29
2018-03-02T05:43:31.479Z,91397.00
2018-03-02T05:44:20.520Z,91400.20
2018-03-02T05:45:10.378Z,91406.30
2018-03-02T05:45:59.634Z,91408.48
2018-03-02T05:46:48.672Z,91402.64
2018-03-02T05:47:37.741Z,91403.52
2018-03-02T05:48:26.816Z,91407.45
2018-03-02T05:49:15.885Z,91408.81
2018-03-02T05:50:04.943Z,91404.91
2018-03-02T05:50:53.989Z,91403.52
2018-03-02T05:51:43.185Z,91403.56
2018-03-02T05:52:32.741Z,91398.69
2018-03-02T05:53:21.851Z,91398.25
2018-03-02T05:54:10.940Z,91396.72
2018-03-02T05:54:59.995Z,91395.95
2018-03-02T05:55:49.049Z,91398.30
2018-03-02T05:56:38.097Z,91402.47
2018-03-02T05:57:27.219Z,91406.13
2018-03-02T05:58:16.321Z,91400.80
2018-03-02T05:59:05.383Z,91408.64
2018-03-02T05:59:54.491Z,91403.30
2018-03-02T06:00:43.634Z,91409.58
2018-03-02T06:01:32.693Z,91400.05
2018-03-02T06:02:21.909Z,91404.48
2018-03-02T06:03:10.976Z,91404.73
2018-03-02T06:04:00.053Z,91405.45
2018-03-02T06:04:49.195Z,91399.10
2018-03-02T06:05:38.268Z,91407.27
2018-03-02T06:06:27.343Z,91409.83
2018-03-02T06:07:16.398Z,91398.17
2018-03-02T06:08:05.457Z,91393.70
2018-03-02T06:08:54.545Z,91393.36
2018-03-02T06:09:43.630Z,91400.02
2018-03-02T06:10:32.781Z,91408.27
2018-03-02T06:11:21.843Z,91404.07
2018-03-02T06:12:10.916Z,91409.23
2018-03-02T06:12:59.968Z,91404.44
2018-03-02T06:13:49.019Z,91412.09
2018-03-02T06:14:38.114Z,91410.17
2018-03-02T06:15:27.166Z,91404.95
2018-03-02T06:16:16.281Z,91406.23
2018-03-02T06:17:05.335Z,91400.01
2018-03-02T06:17:54.382Z,91407.73
2018-03-02T06:18:43.431Z,91403.87
2018-03-02T06:19:32.486Z,91399.92
2018-03-02T06:20:21.570Z,91394.33
2018-03-02T06:21:10.618Z,91382.09
2018-03-02T06:21:59.739Z,91381.09
2018-03-02T06:22:48.787Z,91386.01
2018-03-02T06:23:37.825Z,91390.62
2018-03-02T06:24:26.873Z,91395.46
2018-03-02T06:25:15.916Z,91399.01
2018-03-02T06:26:04.968Z,91396.56
2018-03-02T06:26:54.029Z,91391.03
2018-03-02T06:27:43.200Z,91390.80
2018-03-02T06:28:32.270Z,91389.25
2018-03-02T06:29:21.335Z,91388.85
2018-03-02T06:30:10.496Z,91391.70
2018-03-02T06:30:59.596Z,91393.63
2018-03-02T06:31:48.655Z,91395.97
2018-03-02T06:32:37.714Z,91393.64
2018-03-02T06:33:26.818Z,91394.66
2018-03-02T06:34:15.886Z,91394.81
2018-03-02T06:35:04.945Z,91391.21
2018-03-02T06:35:54.006Z,91384.50
2018-03-02T06:36:43.079Z,91391.88
2018-03-02T06:37:32.164Z,91391.05
2018-03-02T06:38:21.258Z,91389.22
2018-03-02T06:39:10.370Z,91376.77
2018-03-02T06:39:59.464Z,91378.80
2018-03-02T06:40:48.520Z,91382.05
2018-03-02T06:41:37.583Z,91389.31
2018-03-02T06:42:26.641Z,91387.84
2018-03-02T06:43:15.796Z,91387.39
2018-03-02T06:44:04.842Z,91374.08
2018-03-02T06:44:54.093Z,91375.26
2018-03-02T06:45:43.151Z,91379.33
2018-03-02T06:46:32.548Z,91375.46
2018-03-02T06:47:21.652Z,91365.30
2018-03-02T06:48:10.722Z,91353.78
2018-03-02T06:48:59.802Z,91358.34
2018-03-02T06:49:48.935Z,91363.53
2018-03-02T06:50:38.022Z,91369.97
2018-03-02T06:51:27.255Z,91366.98
2018-03-02T06:52:16.522Z,91365.50
2018-03-02T06:53:05.573Z,91362.20
2018-03-02T06:53:54.634Z,91378.11
2018-03-02T06:54:43.732Z,91383.95
2018-03-02T06:55:32.873Z,91384.77
2018-03-02T06:56:22.382Z,91378.16
2018-03-02T06:57:11.448Z,91365.25
2018-03-02T06:58:00.499Z,91366.42
2018-03-02T06:58:49.606Z,91370.34
2018-03-02T06:59:38.723Z,91375.02
2018-03-02T07:00:27.790Z,91377.30
2018-03-02T07:01:17.240Z,91369.52
2018-03-02T07:02:06.516Z,91369.47
2018-03-02T07:02:55.627Z,91375.97
2018-03-02T07:03:44.706Z,91375.91
2018-03-02T07:04:33.774Z,91382.42
2018-03-02T07:05:22.840Z,91377.95
2018-03-02T07:06:12.019Z,91372.57
2018-03-02T07:07:01.076Z,91369.22
2018-03-02T07:07:50.153Z,91371.09
2018-03-02T07:08:39.195Z,91372.03
2018-03-02T07:09:28.284Z,91369.78
2018-03-02T07:10:17.341Z,91362.36
2018-03-02T07:11:06.433Z,91357.98
2018-03-02T07:11:55.520Z,91356.98
2018-03-02T07:12:44.637Z,91368.30
2018-03-02T07:13:33.686Z,91372.37
2018-03-02T07:14:22.762Z,91373.94
2018-03-02T07:15:11.819Z,91371.95
2018-03-02T07:16:00.913Z,91373.78
2018-03-02T07:16:50.001Z,91375.38
2018-03-02T07:17:39.125Z,91368.77
2018-03-02T07:18:28.200Z,91365.91
2018-03-02T07:19:17.275Z,91364.04
2018-03-02T07:20:06.368Z,91366.72
2018-03-02T07:20:55.420Z,91369.62
2018-03-02T07:21:44.640Z,91374.28
2018-03-02T07:22:33.732Z,91376.88
2018-03-02T07:23:22.807Z,91368.78
2018-03-02T07:24:11.877Z,91357.33
2018-03-02T07:25:00.941Z,91357.72
2018-03-02T07:25:50.003Z,91354.75
2018-03-02T07:26:39.068Z,91357.03
2018-03-02T07:27:28.233Z,91367.07
2018-03-02T07:28:17.299Z,91371.53
2018-03-02T07:29:06.356Z,91368.48
2018-03-02T07:29:55.433Z,91364.86
2018-03-02T07:30:44.483Z,91358.86
2018-03-02T07:31:33.530Z,91361.17
2018-03-02T07:32:22.623Z,91363.20
2018-03-02T07:33:11.732Z,91365.14
2018-03-02T07:34:01.707Z,91362.56
2018-03-02T07:34:50.830Z,91364.06
2018-03-02T07:35:39.881Z,91361.55
2018-03-02T07:36:28.931Z,91365.87
2018-03-02T07:37:17.982Z,91359.16
2018-03-02T07:38:07.050Z,91356.78
2018-03-02T07:38:56.230Z,91355.55
2018-03-02T07:39:45.281Z,91351.10
2018-03-02T07:40:34.362Z,91356.37
2018-03-02T07:41:23.410Z,91359.19
2018-03-02T07:42:12.491Z,91354.68
2018-03-02T07:43:01.552Z,91354.55
2018-03-02T07:43:50.633Z,91345.33
2018-03-02T07:44:39.882Z,91343.66
2018-03-02T07:45:28.953Z,91342.04
2018-03-02T07:46:18.061Z,91347.53
2018-03-02T07:47:07.129Z,91343.31
2018-03-02T07:47:56.224Z,91347.97
2018-03-02T07:48:45.283Z,91341.66
2018-03-02T07:49:34.375Z,91332.64
2018-03-02T07:50:23.503Z,91324.53
2018-03-02T07:51:12.597Z,91327.30
2018-03-02T07:52:01.722Z,91332.30
2018-03-02T07:52:50.886Z,91328.45
2018-03-02T07:53:39.950Z,91324.91
2018-03-02T07:54:29.010Z,91324.59
2018-03-02T07:55:18.097Z,91323.39
2018-03-02T07:56:07.147Z,91324.78
2018-03-02T07:56:56.237Z,91326.88
2018-03-02T07:57:45.325Z,91325.36
2018-03-02T07:58:34.487Z,91327.16
2018-03-02T07:59:23.559Z,91330.16
2018-03-02T08:00:12.790Z,91334.22
2018-03-02T08:01:01.887Z,91337.84
2018-03-02T08:01:50.949Z,91331.98
2018-03-02T08:02:40.018Z,91338.33
2018-03-02T08:03:29.127Z,91333.92
2018-03-02T08:04:18.399Z,91331.28
2018-03-02T08:05:07.467Z,91336.73
2018-03-02T08:05:57.310Z,91335.03
2018-03-02T08:06:46.374Z,91337.11
2018-03-02T08:07:35.433Z,91335.92
2018-03-02T08:08:24.541Z,91335.03
2018-03-02T08:09:13.645Z,91333.11
2018-03-02T08:10:02.695Z,91336.30
2018-03-02T08:10:51.760Z,91333.20
2018-03-02T08:11:40.844Z,91338.27
2018-03-02T08:12:29.929Z,91341.29
2018-03-02T08:13:18.982Z,91346.37
2018-03-02T08:14:08.140Z,91344.70
2018-03-02T08:14:57.193Z,91352.80
2018-03-02T08:15:46.273Z,91345.92
2018-03-02T08:16:35.343Z,91342.80
2018-03-02T08:17:24.401Z,91338.59
2018-03-02T08:18:13.437Z,91335.17
2018-03-02T08:19:02.515Z,91339.66
2018-03-02T08:19:51.724Z,91339.44
2018-03-02T08:20:40.808Z,91337.44
2018-03-02T08:21:29.857Z,91335.05
2018-03-02T08:22:18.903Z,91337.70
2018-03-02T08:23:07.992Z,91340.50
2018-03-02T08:23:57.040Z,91329.27
2018-03-02T08:24:46.097Z,91333.89
2018-03-02T08:25:35.152Z,91332.63
2018-03-02T08:26:24.229Z,91330.59
2018-03-02T08:27:13.278Z,91331.27
2018-03-02T08:28:02.325Z,91324.67
2018-03-02T08:28:51.451Z,91331.86
2018-03-02T08:29:40.496Z,91331.63
2018-03-02T08:30:29.560Z,91331.42
2018-03-02T08:31:18.631Z,91333.01
2018-03-02T08:32:07.684Z,91328.35
2018-03-02T08:32:56.759Z,91326.27
2018-03-02T08:33:45.821Z,91319.84
2018-03-02T08:34:35.001Z,91332.23
2018-03-02T08:35:24.080Z,91329.97
2018-03-02T08:36:13.145Z,91325.93
2018-03-02T08:37:02.233Z,91331.28
2018-03-02T08:37:51.284Z,91323.09
2018-03-02T08:38:40.356Z,91325.16
2018-03-02T08:39:29.403Z,91323.27
2018-03-02T08:40:18.563Z,91325.38
2018-03-02T08:41:07.614Z,91330.66
2018-03-02T08:41:56.693Z,91335.44
2018-03-02T08:42:45.786Z,91334.64
2018-03-02T08:43:34.837Z,91329.17
2018-03-02T08:44:24.036Z,91327.42
2018-03-02T08:45:13.102Z,91319.22
2018-03-02T08:46:02.210Z,91320.91
2018-03-02T08:46:51.276Z,91325.27
2018-03-02T08:47:40.317Z,91323.14
2018-03-02T08:48:29.385Z,91331.56
2018-03-02T08:49:18.438Z,91322.72
2018-03-02T08:50:07.520Z,91316.14
2018-03-02T08:50:56.573Z,91323.11
2018-03-02T08:51:45.873Z,91323.20
2018-03-02T08:52:34.932Z,91329.76
2018-03-02T08:53:23.994Z,91332.08
2018-03-02T08:54:13.154Z,91330.85
2018-03-02T08:55:02.208Z,91326.34
2018-03-02T08:55:51.283Z,91313.45
2018-03-02T08:56:40.343Z,91309.06
2018-03-02T08:57:29.434Z,91312.48
2018-03-02T08:58:18.522Z,91322.02
2018-03-02T08:59:07.569Z,91326.10
2018-03-02T08:59:56.685Z,91324.07
2018-03-02T09:00:45.740Z,91315.38
2018-03-02T09:01:34.778Z,91314.09
2018-03-02T09:02:23.852Z,91315.91
2018-03-02T09:03:12.891Z,91316.78
2018-03-02T09:04:01.933Z,91318.80
2018-03-02T09:04:51.010Z,91320.16
2018-03-02T09:05:40.075Z,91323.91
2018-03-02T09:06:29.123Z,91320.38
2018-03-02T09:07:18.170Z,91315.67
2018-03-02T09:08:07.220Z,91317.78
2018-03-02T09:08:56.265Z,91328.28
2018-03-02T09:09:45.330Z,91327.49
2018-03-02T09:10:35.339Z,91331.88
2018-03-02T09:11:24.413Z,91323.56
2018-03-02T09:12:13.461Z,91317.64
2018-03-02T09:13:02.532Z,91319.19
2018-03-02T09:13:51.599Z,91323.38
2018-03-02T09:14:40.660Z,91327.02
2018-03-02T09:15:29.703Z,91337.39
2018-03-02T09:16:21.892Z,91322.25
2018-03-02T09:17:10.945Z,91318.51
2018-03-02T09:17:59.994Z,91311.26
2018-03-02T09:18:49.037Z,91321.48
2018-03-02T09:19:38.083Z,91326.78
2018-03-02T09:20:27.145Z,91324.06
2018-03-02T09:21:16.205Z,91324.66
2018-03-02T09:22:05.308Z,91316.31
2018-03-02T09:22:54.410Z,91311.95
2018-03-02T09:23:43.463Z,91316.55
2018-03-02T09:24:32.513Z,91311.63
2018-03-02T09:25:21.573Z,91311.39
2018-03-02T09:26:10.627Z,91316.86
2018-03-02T09:26:59.674Z,91312.36
2018-03-02T09:27:48.806Z,91318.13
2018-03-02T09:28:37.875Z,91310.45
2018-03-02T09:29:26.915Z,91301.14
2018-03-02T09:30:15.991Z,91301.59
2018-03-02T09:31:05.031Z,91302.05
2018-03-02T09:31:54.074Z,91297.59
2018-03-02T09:32:43.118Z,91306.33
2018-03-02T09:33:32.330Z,91307.48
2018-03-02T09:34:21.379Z,91306.07
2018-03-02T09:35:10.445Z,91294.07
2018-03-02T09:35:59.505Z,91299.85
2018-03-02T09:36:48.553Z,91299.05